Fort Myer, Virginia
Current Conditions -  °F | °C
As of 8:26 PM on Monday 22 Dec 2014 (Local Time) from KDCA Reporting Station
Drizzle Drizzle  
Wind Chill:   Ceiling: 1400
Heat Index:   Visibility: 6mi
Dew Point:   Wind: 9mph
Humidity: 81%   Direction: 10°N
Pressure: 30.16"   Gusts: NA
Location:  38.88°N, 77.08°W
Report Text: KDCA 230126Z 01008KT 6SM -DZ SCT009 OVC014 04/01 A3016 RMK AO2 RAE13DZB26 P0000
Loading
Personal Weather Stations






























Interactive Weather Map New forecast layout! Learn more

10-Day Weather Forecast

Advertisements
Track Severe Weather on mobile